createdAt,value
2016-11-25T00:00:59.175Z,100915
2016-11-25T00:01:59.271Z,100908
2016-11-25T00:02:59.387Z,100903
2016-11-25T00:04:00.715Z,100909
2016-11-25T00:05:00.679Z,100906
2016-11-25T00:05:59.386Z,100898
2016-11-25T00:06:59.451Z,100902
2016-11-25T00:08:00.872Z,100901
2016-11-25T00:08:59.593Z,100904
2016-11-25T00:09:59.585Z,100893
2016-11-25T00:10:59.717Z,100893
2016-11-25T00:11:59.747Z,100894
2016-11-25T00:13:01.134Z,100893
2016-11-25T00:13:59.930Z,100890
2016-11-25T00:15:01.331Z,100890
2016-11-25T00:16:01.335Z,100898
2016-11-25T00:17:00.097Z,100900
2016-11-25T00:18:01.490Z,100900
2016-11-25T00:19:00.257Z,100900
2016-11-25T00:20:01.649Z,100896
2016-11-25T00:21:00.349Z,100897
2016-11-25T00:22:00.391Z,100894
2016-11-25T00:23:01.845Z,100899
2016-11-25T00:24:00.475Z,100892
2016-11-25T00:25:01.897Z,100893
2016-11-25T00:26:01.985Z,100902
2016-11-25T00:27:00.646Z,100897
2016-11-25T00:28:00.736Z,100896
2016-11-25T00:29:00.660Z,100897
2016-11-25T00:30:02.026Z,100903
2016-11-25T00:31:02.142Z,100903
2016-11-25T00:32:00.872Z,100901
2016-11-25T00:33:02.169Z,100907
2016-11-25T00:34:02.306Z,100911
2016-11-25T00:35:00.970Z,100916
2016-11-25T00:36:01.001Z,100910
2016-11-25T00:37:01.072Z,100910
2016-11-25T00:38:02.437Z,100910
2016-11-25T00:39:01.099Z,100915
2016-11-25T00:40:01.128Z,100917
2016-11-25T00:41:02.474Z,100915
2016-11-25T00:42:01.249Z,100914
2016-11-25T00:43:01.263Z,100911
2016-11-25T00:44:01.269Z,100917
2016-11-25T00:45:01.222Z,100914
2016-11-25T00:46:02.639Z,100919
2016-11-25T00:47:01.306Z,100914
2016-11-25T00:48:02.733Z,100921
2016-11-25T00:49:01.470Z,100915
2016-11-25T00:50:01.503Z,100917
2016-11-25T00:51:02.888Z,100912
2016-11-25T00:52:01.615Z,100907
2016-11-25T00:53:01.710Z,100907
2016-11-25T00:54:01.772Z,100907
2016-11-25T00:55:03.204Z,100909
2016-11-25T00:56:03.240Z,100903
2016-11-25T00:57:01.857Z,100904
2016-11-25T00:58:01.897Z,100903
2016-11-25T00:59:01.954Z,100899
2016-11-25T01:00:01.978Z,100893
2016-11-25T01:01:03.411Z,100893
2016-11-25T01:02:02.061Z,100889
2016-11-25T01:03:02.103Z,100884
2016-11-25T01:04:03.524Z,100882
2016-11-25T01:05:02.221Z,100877
2016-11-25T01:06:02.282Z,100871
2016-11-25T01:07:03.668Z,100873
2016-11-25T01:08:03.565Z,100874
2016-11-25T01:09:02.284Z,100881
2016-11-25T01:10:02.323Z,100878
2016-11-25T01:11:02.403Z,100875
2016-11-25T01:12:03.863Z,100870
2016-11-25T01:13:02.457Z,100878
2016-11-25T01:14:02.490Z,100875
2016-11-25T01:15:02.576Z,100875
2016-11-25T01:16:03.934Z,100881
2016-11-25T01:17:02.609Z,100879
2016-11-25T01:18:02.657Z,100875
2016-11-25T01:19:04.067Z,100890
2016-11-25T01:20:04.139Z,100888
2016-11-25T01:21:04.249Z,100885
2016-11-25T01:22:04.219Z,100889
2016-11-25T01:23:02.930Z,100889
2016-11-25T01:24:02.973Z,100893
2016-11-25T01:25:03.027Z,100895
2016-11-25T01:26:03.079Z,100891
2016-11-25T01:27:03.125Z,100893
2016-11-25T01:28:03.236Z,100895
2016-11-25T01:29:04.634Z,100894
2016-11-25T01:30:04.661Z,100900
2016-11-25T01:31:04.622Z,100895
2016-11-25T01:32:04.680Z,100895
2016-11-25T01:33:04.778Z,100895
2016-11-25T01:34:03.484Z,100896
2016-11-25T01:35:03.508Z,100893
2016-11-25T01:36:04.926Z,100897
2016-11-25T01:37:04.920Z,100901
2016-11-25T01:38:05.011Z,100905
2016-11-25T01:39:03.746Z,100903
2016-11-25T01:40:03.819Z,100906
2016-11-25T01:41:05.272Z,100911
2016-11-25T01:42:03.919Z,100910
2016-11-25T01:43:05.283Z,100912
2016-11-25T01:44:05.319Z,100919
2016-11-25T01:45:05.379Z,100913
2016-11-25T01:46:04.156Z,100917
2016-11-25T01:47:04.257Z,100924
2016-11-25T01:48:04.334Z,100928
2016-11-25T01:49:05.647Z,100933
2016-11-25T01:50:04.383Z,100930
2016-11-25T01:51:05.809Z,100928
2016-11-25T01:52:04.488Z,100929
2016-11-25T01:53:04.590Z,100920
2016-11-25T01:54:04.631Z,100924
2016-11-25T01:55:04.666Z,100926
2016-11-25T01:56:06.124Z,100922
2016-11-25T01:57:06.104Z,100922
2016-11-25T01:58:04.769Z,100920
2016-11-25T01:59:06.223Z,100919
2016-11-25T02:00:04.880Z,100923
2016-11-25T02:01:04.967Z,100926
2016-11-25T02:02:05.041Z,100919
2016-11-25T02:03:05.125Z,100919
2016-11-25T02:04:05.219Z,100911
2016-11-25T02:05:05.299Z,100909
2016-11-25T02:06:06.669Z,100909
2016-11-25T02:07:05.343Z,100916
2016-11-25T02:08:05.309Z,100916
2016-11-25T02:09:05.447Z,100913
2016-11-25T02:10:06.836Z,100914
2016-11-25T02:11:06.867Z,100911
2016-11-25T02:12:05.615Z,100910
2016-11-25T02:13:07.004Z,100911
2016-11-25T02:14:05.637Z,100911
2016-11-25T02:15:07.065Z,100915
2016-11-25T02:16:07.115Z,100913
2016-11-25T02:17:05.884Z,100915
2016-11-25T02:18:07.171Z,100923
2016-11-25T02:19:07.195Z,100924
2016-11-25T02:20:07.213Z,100918
2016-11-25T02:21:07.267Z,100927
2016-11-25T02:22:06.138Z,100928
2016-11-25T02:23:07.565Z,100915
2016-11-25T02:24:08.154Z,100917
2016-11-25T02:25:06.297Z,100913
2016-11-25T02:26:06.363Z,100911
2016-11-25T02:27:07.673Z,100907
2016-11-25T02:28:07.703Z,100903
2016-11-25T02:29:07.744Z,100900
2016-11-25T02:30:07.800Z,100891
2016-11-25T02:31:07.908Z,100887
2016-11-25T02:32:07.876Z,100882
2016-11-25T02:33:06.602Z,100875
2016-11-25T02:34:07.967Z,100870
2016-11-25T02:35:06.626Z,100870
2016-11-25T02:36:08.094Z,100868
2016-11-25T02:37:06.837Z,100871
2016-11-25T02:38:06.917Z,100868
2016-11-25T02:39:08.255Z,100869
2016-11-25T02:40:08.333Z,100864
2016-11-25T02:41:08.369Z,100861
2016-11-25T02:42:07.080Z,100866
2016-11-25T02:43:08.421Z,100865
2016-11-25T02:44:07.140Z,100862
2016-11-25T02:45:07.177Z,100857
2016-11-25T02:46:08.822Z,100855
2016-11-25T02:47:08.610Z,100851
2016-11-25T02:48:07.273Z,100847
2016-11-25T02:49:07.433Z,100839
2016-11-25T02:50:08.872Z,100838
2016-11-25T02:51:08.942Z,100833
2016-11-25T02:52:08.249Z,100834
2016-11-25T02:53:09.020Z,100837
2016-11-25T02:54:07.838Z,100832
2016-11-25T02:55:07.787Z,100830
2016-11-25T02:56:07.919Z,100835
2016-11-25T02:57:07.977Z,100843
2016-11-25T02:58:08.014Z,100849
2016-11-25T02:59:07.960Z,100848
2016-11-25T03:00:09.451Z,100852
2016-11-25T03:01:09.563Z,100857
2016-11-25T03:02:09.491Z,100859
2016-11-25T03:03:08.297Z,100858
2016-11-25T03:04:09.594Z,100852
2016-11-25T03:05:08.490Z,100848
2016-11-25T03:06:09.798Z,100852
2016-11-25T03:07:10.027Z,100853
2016-11-25T03:08:10.852Z,100859
2016-11-25T03:09:08.602Z,100855
2016-11-25T03:10:10.008Z,100861
2016-11-25T03:11:08.736Z,100858
2016-11-25T03:12:10.118Z,100854
2016-11-25T03:13:08.813Z,100855
2016-11-25T03:14:10.263Z,100851
2016-11-25T03:15:08.940Z,100846
2016-11-25T03:16:09.000Z,100839
2016-11-25T03:17:09.052Z,100836
2016-11-25T03:18:09.094Z,100841
2016-11-25T03:19:09.161Z,100840
2016-11-25T03:20:09.269Z,100850
2016-11-25T03:21:10.630Z,100843
2016-11-25T03:22:10.695Z,100841
2016-11-25T03:23:10.668Z,100836
2016-11-25T03:24:10.804Z,100842
2016-11-25T03:25:09.451Z,100840
2016-11-25T03:26:09.502Z,100838
2016-11-25T03:27:09.632Z,100832
2016-11-25T03:28:11.027Z,100835
2016-11-25T03:29:09.780Z,100831
2016-11-25T03:30:11.069Z,100829
2016-11-25T03:31:11.164Z,100827
2016-11-25T03:32:11.334Z,100838
2016-11-25T03:33:11.422Z,100835
2016-11-25T03:34:10.071Z,100836
2016-11-25T03:35:11.434Z,100834
2016-11-25T03:36:11.471Z,100832
2016-11-25T03:37:10.199Z,100830
2016-11-25T03:38:10.225Z,100831
2016-11-25T03:39:11.595Z,100837
2016-11-25T03:40:11.597Z,100832
2016-11-25T03:41:10.318Z,100830
2016-11-25T03:42:10.292Z,100828
2016-11-25T03:43:11.799Z,100822
2016-11-25T03:44:11.831Z,100827
2016-11-25T03:45:11.898Z,100824
2016-11-25T03:46:10.561Z,100820
2016-11-25T03:47:10.596Z,100823
2016-11-25T03:48:10.614Z,100823
2016-11-25T03:49:12.023Z,100820
2016-11-25T03:50:10.748Z,100818
2016-11-25T03:51:10.767Z,100817
2016-11-25T03:52:12.168Z,100828
2016-11-25T03:53:12.175Z,100821
2016-11-25T03:54:12.255Z,100829
2016-11-25T03:55:12.319Z,100823
2016-11-25T03:56:12.323Z,100824
2016-11-25T03:57:12.381Z,100831
2016-11-25T03:58:12.449Z,100830
2016-11-25T03:59:11.158Z,100835
2016-11-25T04:00:12.473Z,100841
2016-11-25T04:01:11.199Z,100843
2016-11-25T04:02:12.620Z,100841
2016-11-25T04:03:12.660Z,100842
2016-11-25T04:04:11.332Z,100836
2016-11-25T04:05:11.329Z,100839
2016-11-25T04:06:12.711Z,100841
2016-11-25T04:07:12.851Z,100837
2016-11-25T04:08:12.872Z,100849
2016-11-25T04:09:11.601Z,100846
2016-11-25T04:10:11.584Z,100848
2016-11-25T04:11:12.985Z,100855
2016-11-25T04:12:13.004Z,100848
2016-11-25T04:13:11.807Z,100855
2016-11-25T04:14:11.820Z,100856
2016-11-25T04:15:13.174Z,100856
2016-11-25T04:16:11.901Z,100853
2016-11-25T04:17:13.202Z,100851
2016-11-25T04:18:13.200Z,100850
2016-11-25T04:19:13.235Z,100853
2016-11-25T04:20:13.211Z,100854
2016-11-25T04:21:11.969Z,100855
2016-11-25T04:22:13.391Z,100861
2016-11-25T04:23:12.161Z,100861
2016-11-25T04:24:13.569Z,100858
2016-11-25T04:25:13.561Z,100852
2016-11-25T04:26:13.681Z,100860
2016-11-25T04:27:12.365Z,100857
2016-11-25T04:28:13.796Z,100861
2016-11-25T04:29:12.531Z,100862
2016-11-25T04:30:12.598Z,100862
2016-11-25T04:31:14.070Z,100860
2016-11-25T04:32:12.711Z,100864
2016-11-25T04:33:14.122Z,100857
2016-11-25T04:34:12.788Z,100855
2016-11-25T04:35:14.177Z,100847
2016-11-25T04:36:14.297Z,100849
2016-11-25T04:37:14.337Z,100846
2016-11-25T04:38:13.027Z,100851
2016-11-25T04:39:14.359Z,100853
2016-11-25T04:40:14.463Z,100851
2016-11-25T04:41:13.167Z,100849
2016-11-25T04:42:14.603Z,100858
2016-11-25T04:43:14.637Z,100852
2016-11-25T04:44:13.338Z,100850
2016-11-25T04:45:14.755Z,100853
2016-11-25T04:46:13.439Z,100856
2016-11-25T04:47:13.478Z,100862
2016-11-25T04:48:14.937Z,100860
2016-11-25T04:49:14.976Z,100860
2016-11-25T04:50:15.006Z,100857
2016-11-25T04:51:13.692Z,100857
2016-11-25T04:52:13.730Z,100858
2016-11-25T04:53:13.808Z,100862
2016-11-25T04:54:13.916Z,100862
2016-11-25T04:55:15.240Z,100857
2016-11-25T04:56:13.976Z,100864
2016-11-25T04:57:14.072Z,100862
2016-11-25T04:58:14.066Z,100857
2016-11-25T04:59:14.141Z,100861
2016-11-25T05:00:15.596Z,100856
2016-11-25T05:01:14.217Z,100854
2016-11-25T05:02:15.685Z,100854
2016-11-25T05:03:15.654Z,100852
2016-11-25T05:04:15.756Z,100848
2016-11-25T05:05:15.797Z,100849
2016-11-25T05:06:15.932Z,100844
2016-11-25T05:07:14.607Z,100851
2016-11-25T05:08:16.016Z,100848
2016-11-25T05:09:16.051Z,100847
2016-11-25T05:10:14.763Z,100849
2016-11-25T05:11:16.100Z,100845
2016-11-25T05:12:16.191Z,100842
2016-11-25T05:13:14.884Z,100854
2016-11-25T05:14:16.262Z,100859
2016-11-25T05:15:16.364Z,100855
2016-11-25T05:16:15.123Z,100850
2016-11-25T05:17:16.557Z,100847
2016-11-25T05:18:15.309Z,100848
2016-11-25T05:19:15.285Z,100842
2016-11-25T05:20:15.308Z,100840
2016-11-25T05:21:16.698Z,100834
2016-11-25T05:22:16.766Z,100847
2016-11-25T05:23:16.786Z,100843
2016-11-25T05:24:15.491Z,100844
2016-11-25T05:25:15.423Z,100836
2016-11-25T05:26:15.465Z,100837
2016-11-25T05:27:15.536Z,100829
2016-11-25T05:28:16.852Z,100836
2016-11-25T05:29:15.636Z,100833
2016-11-25T05:30:15.695Z,100833
2016-11-25T05:31:17.075Z,100829
2016-11-25T05:32:17.103Z,100833
2016-11-25T05:33:17.165Z,100828
2016-11-25T05:34:17.209Z,100825
2016-11-25T05:35:15.957Z,100822
2016-11-25T05:36:17.382Z,100821
2016-11-25T05:37:16.012Z,100823
2016-11-25T05:38:17.410Z,100827
2016-11-25T05:39:16.141Z,100826
2016-11-25T05:40:17.477Z,100835
2016-11-25T05:41:17.607Z,100832
2016-11-25T05:42:16.246Z,100831
2016-11-25T05:43:16.270Z,100835
2016-11-25T05:44:17.628Z,100836
2016-11-25T05:45:17.673Z,100844
2016-11-25T05:46:17.776Z,100838
2016-11-25T05:47:16.481Z,100836
2016-11-25T05:48:17.892Z,100827
2016-11-25T05:49:17.988Z,100831
2016-11-25T05:50:16.618Z,100829
2016-11-25T05:51:16.731Z,100833
2016-11-25T05:52:16.758Z,100836
2016-11-25T05:53:18.126Z,100836
2016-11-25T05:54:18.175Z,100837
2016-11-25T05:55:18.188Z,100843
2016-11-25T05:56:18.290Z,100846
2016-11-25T05:57:16.961Z,100845
2016-11-25T05:58:16.953Z,100850
2016-11-25T05:59:18.369Z,100845
2016-11-25T06:00:18.398Z,100845
2016-11-25T06:01:17.170Z,100839
2016-11-25T06:02:17.720Z,100843
2016-11-25T06:03:18.532Z,100843
2016-11-25T06:04:17.202Z,100842
2016-11-25T06:05:18.631Z,100842
2016-11-25T06:06:17.251Z,100837
2016-11-25T06:07:17.299Z,100841
2016-11-25T06:08:17.361Z,100846
2016-11-25T06:09:17.426Z,100849
2016-11-25T06:10:18.779Z,100842
2016-11-25T06:11:17.464Z,100838
2016-11-25T06:12:18.728Z,100840
2016-11-25T06:13:18.771Z,100840
2016-11-25T06:14:17.474Z,100844
2016-11-25T06:15:17.482Z,100834
2016-11-25T06:16:17.631Z,100832
2016-11-25T06:17:17.720Z,100834
2016-11-25T06:18:17.709Z,100838
2016-11-25T06:19:18.989Z,100837
2016-11-25T06:20:17.750Z,100843
2016-11-25T06:21:17.779Z,100840
2016-11-25T06:22:17.845Z,100846
2016-11-25T06:23:17.974Z,100841
2016-11-25T06:24:17.914Z,100849
2016-11-25T06:25:18.008Z,100848
2016-11-25T06:26:19.319Z,100845
2016-11-25T06:27:18.072Z,100848
2016-11-25T06:28:18.111Z,100848
2016-11-25T06:29:18.174Z,100849
2016-11-25T06:30:19.550Z,100850
2016-11-25T06:31:18.313Z,100845
2016-11-25T06:32:19.610Z,100845
2016-11-25T06:33:18.293Z,100843
2016-11-25T06:34:18.409Z,100850
2016-11-25T06:35:18.408Z,100852
2016-11-25T06:36:18.417Z,100850
2016-11-25T06:37:18.529Z,100841
2016-11-25T06:38:19.925Z,100841
2016-11-25T06:39:19.948Z,100841
2016-11-25T06:40:18.604Z,100843
2016-11-25T06:41:18.758Z,100847
2016-11-25T06:42:18.741Z,100844
2016-11-25T06:43:20.165Z,100847
2016-11-25T06:44:20.178Z,100843
2016-11-25T06:45:20.218Z,100842
2016-11-25T06:46:20.286Z,100837
2016-11-25T06:47:20.315Z,100846
2016-11-25T06:48:20.339Z,100845
2016-11-25T06:49:20.374Z,100841
2016-11-25T06:50:20.497Z,100838
2016-11-25T06:51:19.214Z,100843
2016-11-25T06:52:19.305Z,100846
2016-11-25T06:53:19.267Z,100846
2016-11-25T06:54:20.682Z,100848
2016-11-25T06:55:20.684Z,100849
2016-11-25T06:56:20.732Z,100841
2016-11-25T06:57:19.452Z,100836
2016-11-25T06:58:20.832Z,100834
2016-11-25T06:59:20.899Z,100843
2016-11-25T07:00:19.502Z,100842
2016-11-25T07:01:20.923Z,100840
2016-11-25T07:02:20.973Z,100845
2016-11-25T07:03:21.013Z,100848
2016-11-25T07:04:21.030Z,100847
2016-11-25T07:05:19.783Z,100847
2016-11-25T07:06:19.840Z,100848
2016-11-25T07:07:21.232Z,100850
2016-11-25T07:08:21.268Z,100846
2016-11-25T07:09:20.106Z,100850
2016-11-25T07:10:20.173Z,100856
2016-11-25T07:11:20.232Z,100848
2016-11-25T07:12:21.636Z,100853
2016-11-25T07:13:21.661Z,100840
2016-11-25T07:14:21.701Z,100849
2016-11-25T07:15:21.733Z,100853
2016-11-25T07:16:21.789Z,100850
2016-11-25T07:17:20.546Z,100860
2016-11-25T07:18:22.010Z,100855
2016-11-25T07:19:21.939Z,100855
2016-11-25T07:20:20.618Z,100855
2016-11-25T07:21:22.096Z,100862
2016-11-25T07:22:20.765Z,100859
2016-11-25T07:23:22.190Z,100859
2016-11-25T07:24:22.305Z,100854
2016-11-25T07:25:22.358Z,100858
2016-11-25T07:26:21.066Z,100847
2016-11-25T07:27:23.176Z,100854
2016-11-25T07:28:22.568Z,100850
2016-11-25T07:29:21.183Z,100849
2016-11-25T07:30:22.581Z,100851
2016-11-25T07:31:21.954Z,100855
2016-11-25T07:32:22.675Z,100860
2016-11-25T07:33:23.326Z,100862
2016-11-25T07:34:21.492Z,100867
2016-11-25T07:35:22.125Z,100863
2016-11-25T07:36:21.462Z,100861
2016-11-25T07:37:22.854Z,100861
2016-11-25T07:38:23.480Z,100864
2016-11-25T07:39:21.612Z,100866
2016-11-25T07:40:22.925Z,100871
2016-11-25T07:41:21.642Z,100868
2016-11-25T07:42:23.037Z,100876
2016-11-25T07:43:23.129Z,100875
2016-11-25T07:44:24.084Z,100874
2016-11-25T07:45:21.825Z,100881
2016-11-25T07:46:21.830Z,100880
2016-11-25T07:47:21.926Z,100878
2016-11-25T07:48:22.061Z,100873
2016-11-25T07:49:21.983Z,100881
2016-11-25T07:50:22.086Z,100876
2016-11-25T07:51:22.174Z,100877
2016-11-25T07:52:22.221Z,100878
2016-11-25T07:53:23.636Z,100881
2016-11-25T07:54:22.367Z,100873
2016-11-25T07:55:22.382Z,100874
2016-11-25T07:56:24.429Z,100872
2016-11-25T07:57:23.873Z,100876
2016-11-25T07:58:22.533Z,100868
2016-11-25T07:59:22.674Z,100871
2016-11-25T08:00:24.086Z,100869
2016-11-25T08:01:24.205Z,100864
2016-11-25T08:02:24.850Z,100865
2016-11-25T08:03:22.810Z,100870
2016-11-25T08:04:22.946Z,100873
2016-11-25T08:05:24.300Z,100870
2016-11-25T08:06:23.107Z,100875
2016-11-25T08:07:23.119Z,100871
2016-11-25T08:08:24.423Z,100870
2016-11-25T08:09:24.514Z,100867
2016-11-25T08:10:24.222Z,100862
2016-11-25T08:11:24.561Z,100868
2016-11-25T08:12:24.710Z,100861
2016-11-25T08:13:23.304Z,100856
2016-11-25T08:14:23.418Z,100856
2016-11-25T08:15:24.761Z,100858
2016-11-25T08:16:24.767Z,100861
2016-11-25T08:17:23.420Z,100855
2016-11-25T08:18:23.512Z,100860
2016-11-25T08:19:23.548Z,100861
2016-11-25T08:20:23.572Z,100863
2016-11-25T08:21:24.949Z,100863
2016-11-25T08:22:23.682Z,100864
2016-11-25T08:23:23.692Z,100868
2016-11-25T08:24:23.711Z,100865
2016-11-25T08:25:25.166Z,100868
2016-11-25T08:26:25.127Z,100872
2016-11-25T08:27:23.867Z,100869
2016-11-25T08:28:23.967Z,100872
2016-11-25T08:29:25.354Z,100870
2016-11-25T08:30:24.030Z,100876
2016-11-25T08:31:25.456Z,100870
2016-11-25T08:32:24.136Z,100868
2016-11-25T08:33:25.580Z,100870
2016-11-25T08:34:25.636Z,100871
2016-11-25T08:35:24.387Z,100878
2016-11-25T08:36:24.368Z,100877
2016-11-25T08:37:24.391Z,100872
2016-11-25T08:38:25.860Z,100871
2016-11-25T08:39:25.810Z,100875
2016-11-25T08:40:25.847Z,100869
2016-11-25T08:41:24.509Z,100869
2016-11-25T08:42:24.649Z,100871
2016-11-25T08:43:26.012Z,100868
2016-11-25T08:44:26.064Z,100876
2016-11-25T08:45:26.137Z,100870
2016-11-25T08:46:26.212Z,100873
2016-11-25T08:47:26.223Z,100871
2016-11-25T08:48:24.915Z,100874
2016-11-25T08:49:24.999Z,100875
2016-11-25T08:50:25.005Z,100870
2016-11-25T08:51:25.059Z,100870
2016-11-25T08:52:26.409Z,100870
2016-11-25T08:53:26.507Z,100873
2016-11-25T08:54:26.568Z,100871
2016-11-25T08:55:27.182Z,100867
2016-11-25T08:56:25.335Z,100867
2016-11-25T08:57:26.755Z,100864
2016-11-25T08:58:25.458Z,100860
2016-11-25T08:59:26.847Z,100860
2016-11-25T09:00:25.430Z,100859
2016-11-25T09:01:25.573Z,100857
2016-11-25T09:02:26.884Z,100852
2016-11-25T09:03:28.127Z,100852
2016-11-25T09:04:27.018Z,100847
2016-11-25T09:05:25.617Z,100846
2016-11-25T09:06:27.014Z,100840
2016-11-25T09:07:27.117Z,100839
2016-11-25T09:08:27.121Z,100848
2016-11-25T09:09:27.177Z,100838
2016-11-25T09:10:25.960Z,100844
2016-11-25T09:11:25.886Z,100850
2016-11-25T09:12:27.284Z,100844
2016-11-25T09:13:26.558Z,100847
2016-11-25T09:14:26.109Z,100849
2016-11-25T09:15:26.695Z,100849
2016-11-25T09:16:27.978Z,100851
2016-11-25T09:17:27.418Z,100847
2016-11-25T09:18:27.488Z,100846
2016-11-25T09:19:26.957Z,100850
2016-11-25T09:20:26.155Z,100850
2016-11-25T09:21:27.609Z,100850
2016-11-25T09:22:27.679Z,100850
2016-11-25T09:23:26.369Z,100855
2016-11-25T09:24:26.419Z,100859
2016-11-25T09:25:26.547Z,100857
2016-11-25T09:26:26.553Z,100860
2016-11-25T09:27:26.643Z,100871
2016-11-25T09:28:26.704Z,100870
2016-11-25T09:29:26.759Z,100873
2016-11-25T09:30:27.392Z,100871
2016-11-25T09:31:26.937Z,100866
2016-11-25T09:32:28.225Z,100868
2016-11-25T09:33:28.650Z,100869
2016-11-25T09:34:28.866Z,100877
2016-11-25T09:35:28.251Z,100876
2016-11-25T09:36:28.362Z,100876
2016-11-25T09:37:28.243Z,100871
2016-11-25T09:38:27.134Z,100875
2016-11-25T09:39:27.121Z,100877
2016-11-25T09:40:28.568Z,100868
2016-11-25T09:41:28.713Z,100878
2016-11-25T09:42:28.694Z,100878
2016-11-25T09:43:28.073Z,100881
2016-11-25T09:44:27.474Z,100883
2016-11-25T09:45:28.061Z,100885
2016-11-25T09:46:27.469Z,100887
2016-11-25T09:47:27.550Z,100884
2016-11-25T09:48:27.623Z,100885
2016-11-25T09:49:27.627Z,100889
2016-11-25T09:50:28.999Z,100886
2016-11-25T09:51:27.694Z,100893
2016-11-25T09:52:29.170Z,100888
2016-11-25T09:53:29.240Z,100888
2016-11-25T09:54:29.286Z,100886
2016-11-25T09:55:28.014Z,100886
2016-11-25T09:56:29.460Z,100887
2016-11-25T09:57:29.563Z,100888
2016-11-25T09:58:29.653Z,100887
2016-11-25T09:59:29.490Z,100888
2016-11-25T10:00:28.285Z,100882
2016-11-25T10:01:28.324Z,100887
2016-11-25T10:02:29.691Z,100885
2016-11-25T10:03:28.335Z,100881
2016-11-25T10:04:28.345Z,100877
2016-11-25T10:05:29.791Z,100880
2016-11-25T10:06:32.303Z,100882
2016-11-25T10:07:30.187Z,100882
2016-11-25T10:08:33.389Z,100878
2016-11-25T10:09:30.152Z,100890
2016-11-25T10:10:30.731Z,100876
2016-11-25T10:11:31.942Z,100882
2016-11-25T10:12:33.825Z,100897
2016-11-25T10:13:30.163Z,100881
2016-11-25T10:14:28.911Z,100882
2016-11-25T10:15:30.800Z,100884
2016-11-25T10:16:28.974Z,100875
2016-11-25T10:17:28.989Z,100875
2016-11-25T10:18:29.039Z,100877
2016-11-25T10:19:30.488Z,100876
2016-11-25T10:20:30.468Z,100876
2016-11-25T10:21:31.112Z,100872
2016-11-25T10:22:29.258Z,100865
2016-11-25T10:23:29.295Z,100870
2016-11-25T10:24:29.404Z,100874
2016-11-25T10:25:30.831Z,100868
2016-11-25T10:26:29.582Z,100864
2016-11-25T10:27:29.561Z,100867
2016-11-25T10:28:31.539Z,100867
2016-11-25T10:29:29.700Z,100867
2016-11-25T10:30:32.216Z,100864
2016-11-25T10:31:31.100Z,100861
2016-11-25T10:32:29.818Z,100857
2016-11-25T10:33:30.481Z,100857
2016-11-25T10:34:31.175Z,100858
2016-11-25T10:35:29.875Z,100851
2016-11-25T10:36:29.960Z,100856
2016-11-25T10:37:31.316Z,100857
2016-11-25T10:38:30.069Z,100857
2016-11-25T10:39:31.434Z,100862
2016-11-25T10:40:31.537Z,100856
2016-11-25T10:41:31.530Z,100856
2016-11-25T10:42:31.614Z,100848
2016-11-25T10:43:31.660Z,100849
2016-11-25T10:44:31.551Z,100857
2016-11-25T10:45:30.473Z,100857
2016-11-25T10:46:30.564Z,100857
2016-11-25T10:47:31.922Z,100857
2016-11-25T10:48:30.631Z,100857
2016-11-25T10:49:31.258Z,100865
2016-11-25T10:50:32.035Z,100855
2016-11-25T10:51:33.333Z,100860
2016-11-25T10:52:30.870Z,100872
2016-11-25T10:53:32.271Z,100867
2016-11-25T10:54:31.044Z,100864
2016-11-25T10:55:32.345Z,100855
2016-11-25T10:56:31.110Z,100859
2016-11-25T10:57:31.232Z,100853
2016-11-25T10:58:32.568Z,100853
2016-11-25T10:59:31.955Z,100857
2016-11-25T11:00:32.585Z,100856
2016-11-25T11:01:34.709Z,100856
2016-11-25T11:02:34.789Z,100856
2016-11-25T11:03:32.876Z,100860
2016-11-25T11:04:31.557Z,100856
2016-11-25T11:05:33.369Z,100864
2016-11-25T11:06:32.913Z,100860
2016-11-25T11:07:33.048Z,100859
2016-11-25T11:08:31.842Z,100849
2016-11-25T11:09:33.190Z,100855
2016-11-25T11:10:32.365Z,100864
2016-11-25T11:11:31.977Z,100848
2016-11-25T11:12:33.314Z,100843
2016-11-25T11:13:32.012Z,100852
2016-11-25T11:14:33.362Z,100850
2016-11-25T11:15:33.415Z,100854
2016-11-25T11:16:34.767Z,100851
2016-11-25T11:17:33.546Z,100848
2016-11-25T11:18:32.926Z,100847
2016-11-25T11:19:32.380Z,100845
2016-11-25T11:20:34.152Z,100847
2016-11-25T11:21:35.091Z,100850
2016-11-25T11:22:35.751Z,100851
2016-11-25T11:23:33.262Z,100848
2016-11-25T11:24:33.315Z,100853
2016-11-25T11:25:34.041Z,100851
2016-11-25T11:26:35.133Z,100851
2016-11-25T11:27:32.868Z,100852
2016-11-25T11:28:32.909Z,100850
2016-11-25T11:29:32.977Z,100853
2016-11-25T11:30:34.877Z,100852
2016-11-25T11:31:33.034Z,100853
2016-11-25T11:32:33.145Z,100851
2016-11-25T11:33:33.759Z,100843
2016-11-25T11:34:35.352Z,100848
2016-11-25T11:35:33.334Z,100854
2016-11-25T11:36:33.465Z,100845
2016-11-25T11:37:34.785Z,100848
2016-11-25T11:38:36.001Z,100848
2016-11-25T11:39:33.491Z,100850
2016-11-25T11:40:36.150Z,100841
2016-11-25T11:41:35.158Z,100846
2016-11-25T11:42:36.381Z,100848
2016-11-25T11:43:35.858Z,100841
2016-11-25T11:44:35.261Z,100849
2016-11-25T11:45:35.257Z,100848
2016-11-25T11:46:34.599Z,100851
2016-11-25T11:47:35.852Z,100847
2016-11-25T11:48:35.294Z,100855
2016-11-25T11:49:33.990Z,100854
2016-11-25T11:50:33.979Z,100851
2016-11-25T11:51:35.392Z,100844
2016-11-25T11:52:36.239Z,100849
2016-11-25T11:53:35.500Z,100838
2016-11-25T11:54:34.228Z,100846
2016-11-25T11:55:35.611Z,100844
2016-11-25T11:56:35.696Z,100840
2016-11-25T11:57:34.992Z,100840
2016-11-25T11:58:36.031Z,100848
2016-11-25T11:59:35.744Z,100839
2016-11-25T12:00:35.936Z,100844
2016-11-25T12:01:38.031Z,100841
2016-11-25T12:02:37.914Z,100835
2016-11-25T12:03:36.986Z,100839
2016-11-25T12:04:35.971Z,100838
2016-11-25T12:05:36.111Z,100838
2016-11-25T12:06:36.213Z,100845
2016-11-25T12:07:35.451Z,100831
2016-11-25T12:08:38.549Z,100840
2016-11-25T12:09:35.570Z,100843
2016-11-25T12:10:34.994Z,100840
2016-11-25T12:11:35.728Z,100830
2016-11-25T12:12:36.345Z,100832
2016-11-25T12:13:38.226Z,100828
2016-11-25T12:14:35.272Z,100827
2016-11-25T12:15:36.656Z,100832
2016-11-25T12:16:37.299Z,100835
2016-11-25T12:17:35.361Z,100837
2016-11-25T12:18:35.430Z,100825
2016-11-25T12:19:36.112Z,100828
2016-11-25T12:20:35.485Z,100827
2016-11-25T12:21:36.965Z,100831
2016-11-25T12:22:36.959Z,100834
2016-11-25T12:23:36.967Z,100827
2016-11-25T12:24:35.605Z,100820
2016-11-25T12:25:37.026Z,100819
2016-11-25T12:26:35.814Z,100821
2016-11-25T12:27:37.164Z,100827
2016-11-25T12:28:37.130Z,100819
2016-11-25T12:29:37.239Z,100818